Alfred Station, New York
Current Conditions -  °F | °C
As of 11:56 PM on Wednesday 22 Oct 2014 (Local Time) from KELZ Reporting Station
Overcast Overcast  
Wind Chill:   Ceiling: 200
Heat Index:   Visibility: 10mi
Dew Point:   Wind: 12mph
Humidity: 93%   Direction: 20°NNE
Pressure: 30.1"   Gusts: 16mph
Location:  42.27°N, 77.76°W
Report Text: KELZ 230356Z AUTO 02010G14KT 330V050 10SM OVC002 06/05 A3010 RMK AO2 SLP206 T00610050
Loading
Personal Weather Stations






























Interactive Weather Map
Tropical Storm Tracking
New forecast layout! Learn more

10-Day Weather Forecast

Advertisements
Track Severe Weather on mobile